Terminal Aerodrome Forecast
Issued by NWS

Home | Current Version | Previous Version | Graphics & Text | Print | Product List | Glossary On
Versions: 1 2 3 4 5 6 7 8 9 10 11 12 13 14 15 16 17 18 19 20 21 22 23
555
FTUS43 KABR 082327
TAFMBG
TAF
KMBG 082327Z 0900/0924 34015G22KT P6SM OVC120
     FM090200 34015KT P6SM OVC120
     FM091200 VRB04KT P6SM OVC050
     FM091700 VRB04KT P6SM OVC025=

USA.gov is the U.S. government's official web portal to all federal, state and local government web resources and services.